Time;durP1;ratioP1;P1;durP2;ratioP2;P2;SDS_P1;SDS_P2;PMS_P1;PMS_P2;Temp;Humidity;BMP_temperature;BMP_pressure;BME280_temperature;BME280_humidity;BME280_pressure;Samples;Min_cycle;Max_cycle;Signal;HPM_P1;HPM_P2
2024/02/13 00:00:01;;;;;;;0.35;0.35;;;;;;;3.67;100.00;95799.31;1026345;28;20026;-66
2024/02/13 00:00:35;;;;;;;0.80;0.65;;;;;;;3.66;100.00;95796.97;1023030;29;20023;-67
2024/02/13 00:01:07;;;;;;;0.28;0.28;;;;;;;3.66;100.00;95802.16;1026718;28;20266;-66
2024/02/13 00:01:40;;;;;;;0.20;0.20;;;;;;;3.65;100.00;95795.34;1023920;28;20496;-67
2024/02/13 00:02:11;;;;;;;0.30;0.30;;;;;;;3.61;100.00;95800.19;1030619;28;20262;-66
2024/02/13 00:02:41;;;;;;;0.00;0.00;;;;;;;3.61;100.00;95795.00;1026856;28;20294;-67
2024/02/13 00:03:15;;;;;;;0.00;0.00;;;;;;;3.59;100.00;95797.03;1030206;28;20030;-66
2024/02/13 00:03:46;;;;;;;0.20;0.20;;;;;;;3.60;100.00;95803.03;1029293;28;20412;-67
2024/02/13 00:04:19;;;;;;;0.30;0.30;;;;;;;3.55;100.00;95790.69;1030692;28;20269;-67
2024/02/13 00:04:50;;;;;;;0.75;0.40;;;;;;;3.61;100.00;95804.59;1026226;28;20101;-67
2024/02/13 00:05:21;;;;;;;0.55;0.55;;;;;;;3.62;100.00;95800.97;1026454;28;20258;-67
2024/02/13 00:05:54;;;;;;;0.85;0.85;;;;;;;3.61;100.00;95804.59;1034839;28;20022;-67
2024/02/13 00:06:25;;;;;;;17.48;0.82;;;;;;;3.60;100.00;95803.81;1034846;28;20518;-66
2024/02/13 00:06:56;;;;;;;0.20;0.20;;;;;;;3.63;100.00;95811.16;1022587;28;20286;-66
2024/02/13 00:07:28;;;;;;;1.88;0.98;;;;;;;3.62;100.00;95800.97;1022965;29;20068;-66
2024/02/13 00:08:00;;;;;;;0.25;0.10;;;;;;;3.64;100.00;95809.34;1022748;29;20259;-66
2024/02/13 00:08:31;;;;;;;1.65;0.70;;;;;;;3.61;100.00;95809.78;1023160;28;20278;-66
2024/02/13 00:09:01;;;;;;;0.00;0.00;;;;;;;3.63;100.00;95812.97;1026658;28;20294;-66
2024/02/13 00:09:32;;;;;;;0.20;0.20;;;;;;;3.63;100.00;95807.78;1018186;29;20031;-66
2024/02/13 00:10:03;;;;;;;0.20;0.20;;;;;;;3.57;100.00;95803.44;1019080;29;20028;-67
2024/02/13 00:10:35;;;;;;;1.42;0.55;;;;;;;3.62;100.00;95811.34;1033869;28;20304;-67
2024/02/13 00:11:06;;;;;;;0.17;0.17;;;;;;;3.60;100.00;95808.22;1030865;28;20073;-67
2024/02/13 00:11:37;;;;;;;1.00;0.47;;;;;;;3.61;100.00;95812.38;1030888;28;20832;-67
2024/02/13 00:12:08;;;;;;;1.45;1.02;;;;;;;3.59;100.00;95807.41;1032839;28;20038;-67
2024/02/13 00:12:39;;;;;;;0.00;0.00;;;;;;;3.60;100.00;95808.22;1023019;28;20059;-66
2024/02/13 00:13:09;;;;;;;15.25;1.83;;;;;;;3.59;100.00;95812.59;1026625;28;20031;-66
2024/02/13 00:13:40;;;;;;;0.77;0.50;;;;;;;3.59;100.00;95816.97;1027370;28;20065;-66
2024/02/13 00:14:10;;;;;;;6.55;0.88;;;;;;;3.58;100.00;95813.59;1035152;28;20077;-66
2024/02/13 00:14:46;;;;;;;0.40;0.30;;;;;;;3.59;100.00;95810.00;1030857;28;20045;-67
2024/02/13 00:15:20;;;;;;;0.20;0.20;;;;;;;3.59;100.00;95811.78;1026780;28;20026;-66
2024/02/13 00:15:51;;;;;;;0.20;0.20;;;;;;;3.62;100.00;95819.97;1026811;28;20274;-67
2024/02/13 00:16:22;;;;;;;0.30;0.30;;;;;;;3.63;100.00;95812.97;1026676;28;20302;-67
2024/02/13 00:16:53;;;;;;;1.00;1.00;;;;;;;3.63;100.00;95813.75;1019104;29;20279;-66
2024/02/13 00:17:23;;;;;;;0.25;0.25;;;;;;;3.62;100.00;95819.13;1025857;28;20367;-66
2024/02/13 00:17:54;;;;;;;0.40;0.40;;;;;;;3.61;100.00;95814.97;1018840;29;20055;-67
2024/02/13 00:18:25;;;;;;;0.10;0.10;;;;;;;3.63;100.00;95815.56;1022850;28;20442;-67
2024/02/13 00:19:01;;;;;;;1.10;0.85;;;;;;;3.61;100.00;95814.97;1028947;28;20302;-67
2024/02/13 00:19:31;;;;;;;1.65;1.00;;;;;;;3.59;100.00;95817.78;1030700;28;20034;-66
2024/02/13 00:20:08;;;;;;;0.52;0.13;;;;;;;3.60;100.00;95821.19;1027008;28;20362;-66
2024/02/13 00:20:38;;;;;;;0.85;0.47;;;;;;;3.61;100.00;95812.38;1030935;28;20026;-66
2024/02/13 00:21:09;;;;;;;1.08;0.68;;;;;;;3.62;100.00;95814.78;1022941;28;20354;-66
2024/02/13 00:21:40;;;;;;;0.47;0.45;;;;;;;3.61;100.00;95817.56;1022793;29;20019;-67
2024/02/13 00:22:11;;;;;;;0.82;0.82;;;;;;;3.64;100.00;95820.53;1019696;29;20629;-66
2024/02/13 00:22:42;;;;;;;0.00;0.00;;;;;;;3.62;100.00;95817.38;1026617;28;20517;-66
2024/02/13 00:23:13;;;;;;;0.00;0.00;;;;;;;3.63;100.00;95821.53;1022752;29;20333;-66
2024/02/13 00:23:44;;;;;;;0.45;0.45;;;;;;;3.62;100.00;95822.56;1022778;28;20016;-66
2024/02/13 00:24:16;;;;;;;0.40;0.40;;;;;;;3.62;100.00;95821.75;1026446;28;20306;-67
2024/02/13 00:24:48;;;;;;;0.55;0.38;;;;;;;3.62;100.00;95821.75;1027015;28;20046;-66
2024/02/13 00:25:21;;;;;;;0.40;0.40;;;;;;;3.64;100.00;95822.31;1022671;29;20735;-66
2024/02/13 00:25:52;;;;;;;0.20;0.20;;;;;;;3.64;100.00;95822.31;1022432;29;20270;-67
2024/02/13 00:26:23;;;;;;;2.95;1.10;;;;;;;3.63;100.00;95818.94;1022812;29;20285;-66
2024/02/13 00:26:53;;;;;;;0.00;0.00;;;;;;;3.66;100.00;95820.31;1026758;28;20105;-66
2024/02/13 00:27:24;;;;;;;0.65;0.63;;;;;;;3.65;100.00;95821.31;1022572;28;20315;-66
2024/02/13 00:27:55;;;;;;;0.38;0.38;;;;;;;3.64;100.00;95822.31;1022676;29;20050;-68
2024/02/13 00:28:26;;;;;;;0.10;0.10;;;;;;;3.66;100.00;95820.31;1026654;28;20060;-66
2024/02/13 00:28:57;;;;;;;0.05;0.05;;;;;;;3.69;100.00;95825.03;1026741;28;20027;-66
2024/02/13 00:29:27;;;;;;;0.10;0.10;;;;;;;3.69;100.00;95822.44;1026648;28;20274;-67
2024/02/13 00:29:59;;;;;;;0.22;0.22;;;;;;;3.68;100.00;95828.66;1026080;28;20038;-66
2024/02/13 00:30:29;;;;;;;18.42;1.55;;;;;;;3.69;100.00;95827.63;1027018;28;20034;-67
2024/02/13 00:31:00;;;;;;;4.35;1.45;;;;;;;3.70;100.00;95824.84;1026551;28;20274;-66
2024/02/13 00:31:31;;;;;;;0.50;0.50;;;;;;;3.71;100.00;95823.03;1030766;28;20102;-66
2024/02/13 00:32:02;;;;;;;8.25;1.38;;;;;;;3.73;100.00;95823.63;1034907;28;20033;-67
2024/02/13 00:32:37;;;;;;;1.95;0.32;;;;;;;3.71;100.00;95823.81;1028177;28;20784;-66
2024/02/13 00:33:07;;;;;;;0.00;0.00;;;;;;;3.72;100.00;95822.03;1030498;28;20490;-68
2024/02/13 00:33:38;;;;;;;0.52;0.35;;;;;;;3.70;100.00;95824.06;1018708;29;20266;-66
2024/02/13 00:34:09;;;;;;;0.03;0.03;;;;;;;3.69;100.00;95827.63;1028000;28;20277;-66
2024/02/13 00:34:39;;;;;;;0.00;0.00;;;;;;;3.69;100.00;95832.84;1030990;28;20133;-66
2024/02/13 00:35:10;;;;;;;1.77;0.95;;;;;;;3.68;100.00;95826.06;1022685;29;20058;-66
2024/02/13 00:35:41;;;;;;;0.43;0.43;;;;;;;3.69;100.00;95830.25;1030733;28;20030;-65
2024/02/13 00:36:12;;;;;;;0.45;0.32;;;;;;;3.72;100.00;95832.41;1026596;28;20026;-66
2024/02/13 00:36:44;;;;;;;0.85;0.75;;;;;;;3.70;100.00;95830.03;1022725;29;20018;-67
2024/02/13 00:37:15;;;;;;;0.32;0.10;;;;;;;3.70;100.00;95839.63;1022806;29;20655;-67
2024/02/13 00:37:46;;;;;;;0.00;0.00;;;;;;;3.68;100.00;95841.63;1025453;28;20281;-66
2024/02/13 00:38:17;;;;;;;0.00;0.00;;;;;;;3.69;100.00;95832.84;1026361;28;20038;-67
2024/02/13 00:38:47;;;;;;;0.43;0.43;;;;;;;3.67;100.00;95833.06;1026938;28;20274;-67
2024/02/13 00:39:18;;;;;;;0.00;0.00;;;;;;;3.68;100.00;95836.44;1026475;28;20494;-66
2024/02/13 00:39:49;;;;;;;0.20;0.20;;;;;;;3.68;100.00;95833.84;1026294;28;20019;-66
2024/02/13 00:40:20;;;;;;;0.85;0.85;;;;;;;3.66;100.00;95828.09;1026454;28;20515;-66
2024/02/13 00:40:51;;;;;;;1.92;0.70;;;;;;;3.68;100.00;95833.84;1034595;28;20261;-66
2024/02/13 00:41:21;;;;;;;0.43;0.43;;;;;;;3.69;100.00;95835.44;1030887;28;20630;-66
2024/02/13 00:41:54;;;;;;;0.68;0.30;;;;;;;3.68;100.00;95836.44;1026765;28;20045;-67
2024/02/13 00:42:26;;;;;;;0.65;0.52;;;;;;;3.67;100.00;95835.66;1026406;28;20030;-66
2024/02/13 00:42:59;;;;;;;0.47;0.47;;;;;;;3.66;100.00;95839.25;1030940;28;20356;-66
2024/02/13 00:43:31;;;;;;;0.17;0.15;;;;;;;3.67;100.00;95846.03;1022317;28;20295;-67
2024/02/13 00:44:01;;;;;;;0.00;0.00;;;;;;;3.66;100.00;95846.25;1018798;29;20278;-67
2024/02/13 00:44:32;;;;;;;0.10;0.10;;;;;;;3.64;100.00;95843.09;1022371;28;20278;-67
2024/02/13 00:45:05;;;;;;;0.20;0.20;;;;;;;3.62;100.00;95843.31;1018755;29;20286;-66
2024/02/13 00:45:36;;;;;;;0.47;0.47;;;;;;;3.62;100.00;95842.50;1026928;28;20027;-67
2024/02/13 00:46:06;;;;;;;0.47;0.32;;;;;;;3.62;100.00;95840.72;1022456;29;20290;-66
2024/02/13 00:46:37;;;;;;;0.32;0.22;;;;;;;3.63;100.00;95842.28;1026597;28;20306;-67
2024/02/13 00:47:08;;;;;;;5.93;1.35;;;;;;;3.64;100.00;95845.69;1030620;28;20030;-67
2024/02/13 00:47:41;;;;;;;2.38;0.50;;;;;;;3.66;100.00;95846.25;1026625;28;20273;-67
2024/02/13 00:48:12;;;;;;;0.08;0.08;;;;;;;3.66;100.00;95848.84;1035954;28;20052;-66
2024/02/13 00:48:43;;;;;;;0.00;0.00;;;;;;;3.66;100.00;95848.84;1026586;28;20270;-66
2024/02/13 00:49:14;;;;;;;2.47;0.70;;;;;;;3.63;100.00;95852.66;1034662;28;20715;-67
2024/02/13 00:49:45;;;;;;;3.95;0.68;;;;;;;3.60;100.00;95858.28;1030365;28;20034;-66
2024/02/13 00:50:16;;;;;;;0.22;0.10;;;;;;;3.62;100.00;95852.88;1022318;28;20752;-66
2024/02/13 00:50:48;;;;;;;0.25;0.25;;;;;;;3.58;100.00;95851.72;1026879;28;20042;-67
2024/02/13 00:51:18;;;;;;;0.00;0.00;;;;;;;3.62;100.00;95853.69;1020914;29;20259;-66
2024/02/13 00:51:49;;;;;;;0.00;0.00;;;;;;;3.63;100.00;95857.06;1025176;28;20804;-65
2024/02/13 00:52:19;;;;;;;14.73;0.73;;;;;;;3.60;100.00;95847.91;1021313;29;20049;-66
2024/02/13 00:52:50;;;;;;;0.60;0.60;;;;;;;3.59;100.00;95853.28;1026357;28;20367;-66
2024/02/13 00:53:20;;;;;;;0.00;0.00;;;;;;;3.58;100.00;95864.69;1030643;28;20030;-67
2024/02/13 00:53:51;;;;;;;3.13;0.93;;;;;;;3.58;100.00;95859.50;1027008;28;20038;-67
2024/02/13 00:54:24;;;;;;;0.45;0.35;;;;;;;3.58;100.00;95867.28;1022945;28;20519;-67
2024/02/13 00:54:57;;;;;;;0.00;0.00;;;;;;;3.57;100.00;95860.53;1019368;28;20820;-67
2024/02/13 00:55:27;;;;;;;0.17;0.17;;;;;;;3.52;100.00;95850.78;1026877;28;20304;-67
2024/02/13 00:56:00;;;;;;;0.10;0.10;;;;;;;3.57;100.00;95865.72;1026785;28;20352;-67
2024/02/13 00:56:31;;;;;;;0.65;0.28;;;;;;;3.53;100.00;95862.75;1027017;28;20430;-67
2024/02/13 00:57:03;;;;;;;0.57;0.30;;;;;;;3.52;100.00;95866.34;1026581;28;20306;-67
2024/02/13 00:57:34;;;;;;;0.10;0.10;;;;;;;3.53;100.00;95866.13;1031139;28;20494;-68
2024/02/13 00:58:04;;;;;;;0.20;0.20;;;;;;;3.53;100.00;95863.53;1018532;28;20384;-66
2024/02/13 00:58:38;;;;;;;0.90;0.75;;;;;;;3.49;100.00;95862.38;1029258;28;20309;-67
2024/02/13 00:59:08;;;;;;;0.22;0.22;;;;;;;3.49;100.00;95867.56;1030835;28;20026;-67
2024/02/13 00:59:40;;;;;;;3.83;0.43;;;;;;;3.49;100.00;95869.38;1022042;29;20283;-67
2024/02/13 01:00:10;;;;;;;0.75;0.65;;;;;;;3.52;100.00;95864.56;1026543;28;20414;-67
2024/02/13 01:00:41;;;;;;;0.20;0.20;;;;;;;3.49;100.00;95864.97;1022743;29;20608;-67
2024/02/13 01:01:12;;;;;;;0.15;0.15;;;;;;;3.49;100.00;95869.38;1026168;28;20050;-66
2024/02/13 01:01:43;;;;;;;0.03;0.03;;;;;;;3.46;100.00;95873.19;1025450;28;20023;-66
2024/02/13 01:02:17;;;;;;;0.10;0.08;;;;;;;3.47;100.00;95872.19;1030527;28;20273;-67
2024/02/13 01:02:47;;;;;;;0.30;0.30;;;;;;;3.45;100.00;95874.19;1035767;28;20025;-67
2024/02/13 01:03:18;;;;;;;0.05;0.05;;;;;;;3.49;100.00;95877.97;1026680;28;20341;-66
2024/02/13 01:03:48;;;;;;;0.20;0.20;;;;;;;3.47;100.00;95882.56;1022534;29;20519;-66
2024/02/13 01:04:19;;;;;;;0.00;0.00;;;;;;;3.45;100.00;95884.56;1026821;28;20497;-67
2024/02/13 01:04:49;;;;;;;2.28;0.63;;;;;;;3.45;100.00;95881.97;1026709;28;20078;-66
2024/02/13 01:05:20;;;;;;;0.00;0.00;;;;;;;3.44;100.00;95880.38;1026424;28;20126;-66
2024/02/13 01:05:50;;;;;;;0.75;0.75;;;;;;;3.44;100.00;95882.97;1031005;28;20026;-66
2024/02/13 01:06:24;;;;;;;0.20;0.20;;;;;;;3.44;100.00;95893.34;1022553;29;20023;-66
2024/02/13 01:06:55;;;;;;;0.50;0.50;;;;;;;3.42;100.00;95885.00;1019793;28;20303;-67
2024/02/13 01:07:25;;;;;;;0.20;0.20;;;;;;;3.46;100.00;95893.16;1022803;29;20031;-67
2024/02/13 01:07:56;;;;;;;0.20;0.20;;;;;;;3.44;100.00;95888.16;1022735;29;20416;-66
2024/02/13 01:08:27;;;;;;;1.15;0.95;;;;;;;3.43;100.00;95891.78;1026499;28;20482;-67
2024/02/13 01:08:57;;;;;;;0.90;0.45;;;;;;;3.42;100.00;95890.19;1026349;28;20262;-66
2024/02/13 01:09:29;;;;;;;0.10;0.00;;;;;;;3.41;100.00;95887.78;1018458;29;20190;-67
2024/02/13 01:09:59;;;;;;;0.00;0.00;;;;;;;3.42;100.00;95891.97;1026789;28;20030;-66
2024/02/13 01:10:30;;;;;;;0.00;0.00;;;;;;;3.38;100.00;95888.22;1021050;28;20429;-66
2024/02/13 01:11:00;;;;;;;0.15;0.15;;;;;;;3.40;100.00;95894.78;1026508;28;20085;-66
2024/02/13 01:11:33;;;;;;;0.20;0.20;;;;;;;3.38;100.00;95894.19;1022726;29;20440;-66
2024/02/13 01:12:03;;;;;;;0.20;0.20;;;;;;;3.41;100.00;95898.97;1030509;28;20109;-66
2024/02/13 01:12:34;;;;;;;0.25;0.13;;;;;;;3.44;100.00;95893.34;1026766;28;20324;-67
2024/02/13 01:13:05;;;;;;;0.90;0.30;;;;;;;3.44;100.00;95893.34;1026661;28;20114;-66
2024/02/13 01:13:35;;;;;;;1.10;0.50;;;;;;;3.45;100.00;95891.53;1018439;28;20027;-66
2024/02/13 01:14:07;;;;;;;0.30;0.15;;;;;;;3.44;100.00;95897.75;1022800;29;20182;-66
2024/02/13 01:14:38;;;;;;;0.20;0.20;;;;;;;3.41;100.00;95891.19;1030518;28;20027;-66
2024/02/13 01:15:10;;;;;;;0.28;0.28;;;;;;;3.43;100.00;95899.56;1022593;29;20981;-67
2024/02/13 01:15:40;;;;;;;0.05;0.05;;;;;;;3.39;100.00;95885.44;1033821;28;20018;-66
2024/02/13 01:16:11;;;;;;;0.08;0.08;;;;;;;3.44;100.00;95893.34;1022566;29;20266;-66
2024/02/13 01:16:41;;;;;;;0.17;0.17;;;;;;;3.44;100.00;95893.34;1030814;28;20023;-66
2024/02/13 01:17:12;;;;;;;0.08;0.08;;;;;;;3.44;100.00;95893.34;1028621;28;20045;-66
2024/02/13 01:17:42;;;;;;;0.20;0.20;;;;;;;3.43;100.00;95894.38;1026398;28;20126;-66
2024/02/13 01:18:14;;;;;;;0.10;0.00;;;;;;;3.43;100.00;95894.38;1026736;28;20553;-66
2024/02/13 01:18:44;;;;;;;0.10;0.10;;;;;;;3.43;100.00;95891.78;1022365;28;20121;-66
2024/02/13 01:19:20;;;;;;;0.00;0.00;;;;;;;3.42;100.00;95894.56;1018624;29;20359;-66
2024/02/13 01:19:53;;;;;;;0.20;0.20;;;;;;;3.41;100.00;95893.78;1021982;29;20023;-66
2024/02/13 01:20:24;;;;;;;0.00;0.00;;;;;;;3.39;100.00;95898.41;1022656;28;20827;-66
2024/02/13 01:20:54;;;;;;;0.80;0.70;;;;;;;3.39;100.00;95895.81;1022734;29;20435;-67
2024/02/13 01:21:25;;;;;;;0.43;0.43;;;;;;;3.39;100.00;95897.59;1030523;28;20437;-66
2024/02/13 01:21:55;;;;;;;0.03;0.03;;;;;;;3.36;100.00;95896.22;1030503;28;20196;-66
2024/02/13 01:22:26;;;;;;;1.25;1.15;;;;;;;3.36;100.00;95900.63;1026103;28;20578;-66
2024/02/13 01:22:56;;;;;;;0.00;0.00;;;;;;;3.33;100.00;95896.66;1026624;28;20054;-66
2024/02/13 01:23:27;;;;;;;0.75;0.63;;;;;;;3.34;100.00;95903.41;1026814;28;20041;-66
2024/02/13 01:23:57;;;;;;;6.03;1.15;;;;;;;3.30;100.00;95903.03;1026166;28;20052;-66
2024/02/13 01:24:29;;;;;;;0.80;0.80;;;;;;;3.30;100.00;95897.06;1026522;28;20074;-66
2024/02/13 01:24:59;;;;;;;0.10;0.10;;;;;;;3.33;100.00;95907.03;1026854;28;20257;-66
2024/02/13 01:25:30;;;;;;;0.32;0.32;;;;;;;3.32;100.00;95905.44;1022413;29;20279;-66
2024/02/13 01:26:03;;;;;;;0.20;0.20;;;;;;;3.30;100.00;95908.25;1022617;29;20044;-66
2024/02/13 01:26:33;;;;;;;0.80;0.75;;;;;;;3.31;100.00;95911.63;1019875;29;20271;-66
2024/02/13 01:27:04;;;;;;;0.08;0.08;;;;;;;3.30;100.00;95907.44;1022363;29;20358;-66
2024/02/13 01:27:35;;;;;;;0.00;0.00;;;;;;;3.30;100.00;95902.25;1026081;28;20050;-67
2024/02/13 01:28:07;;;;;;;0.20;0.20;;;;;;;3.31;100.00;95916.81;1026462;28;20274;-66
2024/02/13 01:28:38;;;;;;;0.15;0.15;;;;;;;3.29;100.00;95908.47;1026650;28;20349;-66
2024/02/13 01:29:10;;;;;;;0.10;0.10;;;;;;;3.28;100.00;95915.41;1026716;28;20274;-66
2024/02/13 01:29:40;;;;;;;0.10;0.10;;;;;;;3.27;100.00;95916.44;1030083;28;20277;-66
2024/02/13 01:30:13;;;;;;;0.65;0.32;;;;;;;3.26;100.00;95916.66;1022813;29;20311;-66
2024/02/13 01:30:44;;;;;;;0.00;0.00;;;;;;;3.24;100.00;95914.25;1023801;28;20038;-66
2024/02/13 01:31:15;;;;;;;2.10;0.35;;;;;;;3.22;100.00;95910.28;1026669;28;20380;-66
2024/02/13 01:31:47;;;;;;;0.20;0.20;;;;;;;3.21;100.00;95913.91;1030908;28;20081;-66
2024/02/13 01:32:18;;;;;;;0.32;0.30;;;;;;;3.18;100.00;95909.91;1030179;28;20411;-66
2024/02/13 01:32:48;;;;;;;0.00;0.00;;;;;;;3.22;100.00;95923.25;1030536;28;20273;-66
2024/02/13 01:33:19;;;;;;;0.52;0.52;;;;;;;3.18;100.00;95916.91;1026791;28;20445;-66
2024/02/13 01:33:49;;;;;;;0.22;0.22;;;;;;;3.16;100.00;95918.94;1026524;28;20748;-66
2024/02/13 01:34:20;;;;;;;0.10;0.10;;;;;;;3.16;100.00;95918.94;1025540;28;20041;-66
2024/02/13 01:34:51;;;;;;;0.20;0.20;;;;;;;3.15;100.00;95922.50;1026640;28;20055;-66
2024/02/13 01:35:21;;;;;;;6.22;0.28;;;;;;;3.14;100.00;95928.72;1022681;29;20043;-66
2024/02/13 01:35:53;;;;;;;0.50;0.50;;;;;;;3.13;100.00;95922.72;1030921;28;20034;-66
2024/02/13 01:36:24;;;;;;;1.65;0.82;;;;;;;3.14;100.00;95915.75;1026576;28;20071;-66
2024/02/13 01:36:57;;;;;;;0.00;0.00;;;;;;;3.14;100.00;95924.31;1026542;28;20272;-66
2024/02/13 01:37:30;;;;;;;0.60;0.60;;;;;;;3.14;100.00;95929.50;1023335;28;20102;-66
2024/02/13 01:38:06;;;;;;;0.30;0.30;;;;;;;3.13;100.00;95925.31;1022596;29;20275;-66
2024/02/13 01:38:37;;;;;;;27.10;0.90;;;;;;;3.18;100.00;95932.47;1026601;28;20687;-66
2024/02/13 01:39:09;;;;;;;0.95;0.95;;;;;;;3.14;100.00;95934.69;1022475;28;20266;-66
2024/02/13 01:39:39;;;;;;;0.65;0.65;;;;;;;3.14;100.00;95934.69;1022006;28;20035;-67
2024/02/13 01:40:11;;;;;;;0.65;0.38;;;;;;;3.16;100.00;95943.06;1026744;28;20262;-66
2024/02/13 01:40:41;;;;;;;0.03;0.03;;;;;;;3.15;100.00;95933.66;1022573;29;20107;-66
2024/02/13 01:41:12;;;;;;;0.10;0.10;;;;;;;3.15;100.00;95938.84;1026113;28;20353;-66
2024/02/13 01:41:43;;;;;;;0.38;0.30;;;;;;;3.17;100.00;95943.84;1022532;28;20483;-66
2024/02/13 01:42:13;;;;;;;0.20;0.20;;;;;;;3.17;100.00;95930.88;1026476;28;20306;-66
2024/02/13 01:42:49;;;;;;;1.27;0.80;;;;;;;3.18;100.00;95935.06;1022603;28;20114;-66
2024/02/13 01:43:19;;;;;;;0.70;0.32;;;;;;;3.18;100.00;95937.66;1026587;28;20142;-67
2024/02/13 01:43:50;;;;;;;0.30;0.30;;;;;;;3.16;100.00;95932.69;1022787;29;20956;-67
2024/02/13 01:44:20;;;;;;;0.75;0.45;;;;;;;3.17;100.00;95933.47;1023797;28;20502;-67
2024/02/13 01:44:53;;;;;;;3.50;0.75;;;;;;;3.17;100.00;95943.84;1022449;29;20027;-66
2024/02/13 01:45:24;;;;;;;0.90;0.55;;;;;;;3.15;100.00;95927.69;1018855;29;20619;-66
2024/02/13 01:45:56;;;;;;;0.52;0.43;;;;;;;3.17;100.00;95938.66;1026715;28;20276;-66
2024/02/13 01:46:26;;;;;;;0.20;0.10;;;;;;;3.16;100.00;95939.69;1034427;28;20126;-66
2024/02/13 01:46:57;;;;;;;0.22;0.22;;;;;;;3.14;100.00;95928.72;1022723;28;20674;-66
2024/02/13 01:47:28;;;;;;;0.20;0.20;;;;;;;3.16;100.00;95931.91;1026631;28;20513;-66
2024/02/13 01:48:01;;;;;;;0.10;0.10;;;;;;;3.18;100.00;95940.25;1022759;29;20114;-67
2024/02/13 01:48:31;;;;;;;0.35;0.25;;;;;;;3.18;100.00;95942.84;1029923;28;20319;-66
2024/02/13 01:49:03;;;;;;;0.05;0.05;;;;;;;3.21;100.00;95945.78;1026418;28;20285;-67
2024/02/13 01:49:33;;;;;;;0.40;0.40;;;;;;;3.21;100.00;95947.59;1026188;28;20037;-66
2024/02/13 01:50:09;;;;;;;3.05;1.40;;;;;;;3.20;100.00;95943.44;1028783;28;20309;-67
2024/02/13 01:50:40;;;;;;;0.52;0.52;;;;;;;3.19;100.00;95952.22;1022195;28;20027;-67
2024/02/13 01:51:12;;;;;;;0.00;0.00;;;;;;;3.19;100.00;95945.22;1024121;28;20354;-64
2024/02/13 01:51:42;;;;;;;0.68;0.68;;;;;;;3.21;100.00;95955.38;1027155;28;20122;-67
2024/02/13 01:52:13;;;;;;;2.30;1.90;;;;;;;3.21;100.00;95960.56;1030266;28;20289;-67
2024/02/13 01:52:43;;;;;;;0.10;0.10;;;;;;;3.21;100.00;95955.38;1029266;28;20022;-67
2024/02/13 01:53:14;;;;;;;1.25;0.52;;;;;;;3.24;100.00;95950.56;1022978;28;20034;-67
2024/02/13 01:53:44;;;;;;;0.28;0.28;;;;;;;3.21;100.00;95956.16;1026672;28;20031;-67
2024/02/13 01:54:15;;;;;;;0.35;0.10;;;;;;;3.17;100.00;95949.03;1022525;28;20027;-66
2024/02/13 01:54:47;;;;;;;0.47;0.47;;;;;;;3.22;100.00;95962.16;1026606;28;20077;-66
2024/02/13 01:55:18;;;;;;;0.17;0.15;;;;;;;3.20;100.00;95952.00;1030596;28;20690;-68
2024/02/13 01:55:50;;;;;;;0.00;0.00;;;;;;;3.21;100.00;95958.75;1031198;28;20270;-66
2024/02/13 01:56:24;;;;;;;1.52;0.15;;;;;;;3.19;100.00;95960.00;1027364;28;20277;-67
2024/02/13 01:56:54;;;;;;;0.22;0.10;;;;;;;3.18;100.00;95955.81;1023063;29;20271;-66
2024/02/13 01:57:26;;;;;;;0.05;0.03;;;;;;;3.20;100.00;95959.00;1023179;29;20282;-67
2024/02/13 01:57:57;;;;;;;0.00;0.00;;;;;;;3.18;100.00;95954.00;1023219;29;20398;-67
2024/02/13 01:58:31;;;;;;;1.95;0.85;;;;;;;3.18;100.00;95958.38;1028792;28;20382;-66
2024/02/13 01:59:03;;;;;;;0.00;0.00;;;;;;;3.19;100.00;95960.78;1031601;28;20157;-67
2024/02/13 01:59:38;;;;;;;0.30;0.30;;;;;;;3.17;100.00;95949.03;1034595;28;20268;-66
2024/02/13 02:00:16;;;;;;;1.35;1.10;;;;;;;3.16;100.00;95953.44;1032623;28;20819;-67
2024/02/13 02:00:47;;;;;;;3.10;0.65;;;;;;;3.17;100.00;95955.00;1035303;28;20271;-67
2024/02/13 02:01:18;;;;;;;0.00;0.00;;;;;;;3.13;100.00;95958.25;1023143;29;20262;-67
2024/02/13 02:01:49;;;;;;;1.58;0.45;;;;;;;3.11;100.00;95955.06;1024478;28;20349;-66
2024/02/13 02:02:19;;;;;;;0.00;0.00;;;;;;;3.10;100.00;95950.88;1031044;28;20589;-67
2024/02/13 02:02:50;;;;;;;0.22;0.22;;;;;;;3.14;100.00;95954.63;1031236;28;20057;-67
2024/02/13 02:03:20;;;;;;;0.63;0.57;;;;;;;3.13;100.00;95958.25;1020259;29;20035;-67
2024/02/13 02:03:51;;;;;;;0.00;0.00;;;;;;;3.11;100.00;95958.44;1023320;28;20403;-67
2024/02/13 02:04:23;;;;;;;0.10;0.10;;;;;;;3.11;100.00;95960.25;1024032;29;20026;-67
2024/02/13 02:04:53;;;;;;;0.25;0.25;;;;;;;3.06;100.00;95959.06;1027606;28;20121;-67
2024/02/13 02:05:24;;;;;;;0.65;0.65;;;;;;;3.04;100.00;95965.47;1027327;28;20905;-67
2024/02/13 02:05:54;;;;;;;0.00;0.00;;;;;;;3.04;100.00;95966.25;1027478;28;20062;-67
2024/02/13 02:06:25;;;;;;;0.30;0.30;;;;;;;3.05;100.00;95967.88;1035483;28;20057;-67
2024/02/13 02:06:55;;;;;;;0.30;0.30;;;;;;;3.04;100.00;95965.47;1027355;28;20033;-66
2024/02/13 02:07:27;;;;;;;3.10;0.85;;;;;;;3.01;100.00;95965.88;1023409;29;20030;-67
2024/02/13 02:07:57;;;;;;;4.28;0.63;;;;;;;3.03;100.00;95962.09;1023204;29;20031;-66
2024/02/13 02:08:28;;;;;;;0.17;0.17;;;;;;;3.04;100.00;95970.66;1027226;28;20809;-66
2024/02/13 02:08:58;;;;;;;0.20;0.20;;;;;;;3.03;100.00;95975.03;1031040;28;20100;-66
2024/02/13 02:09:29;;;;;;;0.13;0.10;;;;;;;2.99;100.00;95966.09;1026991;28;20141;-67
2024/02/13 02:10:00;;;;;;;0.15;0.15;;;;;;;2.99;100.00;95965.31;1031421;28;20022;-66
2024/02/13 02:10:30;;;;;;;0.38;0.38;;;;;;;2.99;100.00;95967.91;1026989;28;20133;-67
2024/02/13 02:11:03;;;;;;;0.55;0.55;;;;;;;3.02;100.00;95970.88;1027234;28;20518;-67
2024/02/13 02:11:34;;;;;;;1.08;0.43;;;;;;;3.01;100.00;95977.03;1027590;28;20097;-66
2024/02/13 02:12:05;;;;;;;0.35;0.35;;;;;;;3.01;100.00;95971.84;1027099;28;20292;-66
2024/02/13 02:12:35;;;;;;;0.15;0.15;;;;;;;3.02;100.00;95970.88;1023322;28;20223;-66
2024/02/13 02:13:06;;;;;;;0.68;0.63;;;;;;;3.01;100.00;95974.44;1023131;29;20073;-66
2024/02/13 02:13:36;;;;;;;0.40;0.40;;;;;;;2.87;100.00;95954.00;1027052;28;20022;-67
2024/02/13 02:14:08;;;;;;;0.00;0.00;;;;;;;2.99;100.00;95973.09;1023433;29;20023;-66
2024/02/13 02:14:39;;;;;;;0.55;0.38;;;;;;;3.01;100.00;95979.63;1024865;28;20028;-67
2024/02/13 02:15:10;;;;;;;0.10;0.10;;;;;;;3.00;100.00;95978.06;1023233;28;20270;-67
2024/02/13 02:15:41;;;;;;;0.20;0.20;;;;;;;3.00;100.00;95979.84;1023010;28;20146;-66
2024/02/13 02:16:11;;;;;;;0.00;0.00;;;;;;;2.89;100.00;95963.16;1022215;29;20722;-65
2024/02/13 02:16:43;;;;;;;0.85;0.28;;;;;;;2.98;100.00;95982.63;1025394;28;20019;-66
2024/02/13 02:17:13;;;;;;;0.00;0.00;;;;;;;3.01;100.00;95982.22;1026918;28;20118;-69
2024/02/13 02:17:53;;;;;;;0.35;0.35;;;;;;;2.99;100.00;95984.25;1023508;28;20668;-66
2024/02/13 02:18:24;;;;;;;0.20;0.20;;;;;;;2.99;100.00;95986.84;1032699;28;20041;-66
2024/02/13 02:18:55;;;;;;;0.15;0.15;;;;;;;3.00;100.00;95985.03;1038262;28;20037;-67
2024/02/13 02:19:25;;;;;;;0.28;0.28;;;;;;;2.98;100.00;95984.44;1031537;28;20121;-67
2024/02/13 02:19:56;;;;;;;2.90;0.98;;;;;;;2.98;100.00;95987.03;1031416;28;20982;-66
2024/02/13 02:20:26;;;;;;;2.70;1.35;;;;;;;2.99;100.00;95989.44;1031138;28;20109;-66
2024/02/13 02:20:57;;;;;;;2.90;0.98;;;;;;;2.98;100.00;95990.41;1035582;28;20057;-66
2024/02/13 02:21:27;;;;;;;2.83;0.63;;;;;;;2.97;100.00;95988.84;1043488;28;20035;-66
2024/02/13 02:21:58;;;;;;;0.15;0.15;;;;;;;2.95;100.00;95992.63;1043611;28;20032;-67
2024/02/13 02:22:29;;;;;;;0.90;0.38;;;;;;;2.95;100.00;95993.44;1043168;28;20029;-66
2024/02/13 02:23:00;;;;;;;0.10;0.10;;;;;;;2.96;100.00;95995.03;1043915;28;20025;-66
2024/02/13 02:23:31;;;;;;;0.68;0.57;;;;;;;2.95;100.00;95996.03;1043033;28;20059;-66
2024/02/13 02:24:02;;;;;;;0.75;0.52;;;;;;;2.95;100.00;95996.03;1038678;28;20575;-67
2024/02/13 02:24:34;;;;;;;0.40;0.40;;;;;;;2.97;100.00;96001.00;1035378;28;20276;-66
2024/02/13 02:25:06;;;;;;;0.45;0.38;;;;;;;2.96;100.00;95996.81;1031575;28;20761;-67
2024/02/13 02:25:37;;;;;;;0.20;0.20;;;;;;;2.95;100.00;95988.25;1028336;28;20807;-66
2024/02/13 02:26:07;;;;;;;0.10;0.10;;;;;;;2.98;100.00;95992.22;1036004;28;20332;-67
2024/02/13 02:26:38;;;;;;;0.85;0.85;;;;;;;2.96;100.00;95992.44;1039401;28;20033;-67
2024/02/13 02:27:08;;;;;;;0.38;0.30;;;;;;;3.00;100.00;95998.00;1041226;28;20029;-66